createdAt,value
2019-02-18T00:00:30.698Z,8.33
2019-02-18T00:02:59.910Z,10.60
2019-02-18T00:05:28.989Z,11.40
2019-02-18T00:07:57.811Z,11.33
2019-02-18T00:10:26.497Z,10.37
2019-02-18T00:12:55.224Z,10.17
2019-02-18T00:15:23.975Z,10.43
2019-02-18T00:17:52.782Z,11.37
2019-02-18T00:20:21.586Z,12.83
2019-02-18T00:22:50.379Z,11.83
2019-02-18T00:25:19.183Z,11.87
2019-02-18T00:27:47.850Z,11.83
2019-02-18T00:30:16.601Z,11.60
2019-02-18T00:32:45.283Z,11.43
2019-02-18T00:35:14.097Z,10.80
2019-02-18T00:37:42.782Z,9.80
2019-02-18T00:40:11.592Z,9.57
2019-02-18T00:42:40.345Z,10.53
2019-02-18T00:45:15.275Z,10.10
2019-02-18T00:47:44.103Z,9.50
2019-02-18T00:50:12.915Z,8.93
2019-02-18T00:52:41.647Z,8.83
2019-02-18T00:55:10.451Z,9.43
2019-02-18T00:57:39.118Z,9.50
2019-02-18T01:00:17.825Z,9.97
2019-02-18T01:02:46.621Z,10.70
2019-02-18T01:05:15.389Z,9.70
2019-02-18T01:07:44.176Z,9.57
2019-02-18T01:10:13.189Z,9.43
2019-02-18T01:12:41.999Z,8.60
2019-02-18T01:15:12.947Z,8.33
2019-02-18T01:17:41.671Z,7.77
2019-02-18T01:20:14.386Z,10.10
2019-02-18T01:22:43.130Z,9.77
2019-02-18T01:25:13.126Z,6.80
2019-02-18T01:27:41.811Z,6.50
2019-02-18T01:30:13.213Z,8.30
2019-02-18T01:32:41.956Z,8.53
2019-02-18T01:35:10.767Z,9.07
2019-02-18T01:37:45.614Z,9.33
2019-02-18T01:40:12.191Z,8.97
2019-02-18T01:42:40.939Z,9.20
2019-02-18T01:45:14.226Z,9.57
2019-02-18T01:47:42.906Z,11.23
2019-02-18T01:50:15.787Z,12.57
2019-02-18T01:52:44.476Z,11.70
2019-02-18T01:55:14.085Z,12.03
2019-02-18T01:57:42.829Z,10.50
2019-02-18T02:00:14.113Z,9.00
2019-02-18T02:02:42.855Z,9.27
2019-02-18T02:05:13.935Z,9.60
2019-02-18T02:07:42.667Z,10.03
2019-02-18T02:10:13.624Z,10.00
2019-02-18T02:12:42.409Z,9.20
2019-02-18T02:15:16.544Z,7.03
2019-02-18T02:17:45.264Z,7.47
2019-02-18T02:20:14.009Z,8.27
2019-02-18T02:22:42.744Z,10.00
2019-02-18T02:25:11.505Z,10.40
2019-02-18T02:27:40.155Z,7.90
2019-02-18T02:30:10.451Z,8.90
2019-02-18T02:32:39.183Z,9.47
2019-02-18T02:35:07.925Z,9.40
2019-02-18T02:37:36.669Z,9.60
2019-02-18T02:40:08.529Z,9.73
2019-02-18T02:42:37.327Z,9.80
2019-02-18T02:45:07.780Z,10.90
2019-02-18T02:47:36.511Z,10.13
2019-02-18T02:50:06.820Z,10.13
2019-02-18T02:52:35.627Z,9.93
2019-02-18T02:55:06.094Z,10.83
2019-02-18T02:57:34.769Z,10.80
2019-02-18T03:00:05.038Z,10.80
2019-02-18T03:02:33.655Z,10.90
2019-02-18T03:05:02.341Z,11.47
2019-02-18T03:07:30.991Z,11.30
2019-02-18T03:09:59.672Z,10.93
2019-02-18T03:12:28.420Z,10.50
2019-02-18T03:14:57.083Z,9.60
2019-02-18T03:17:25.693Z,7.40
2019-02-18T03:19:54.416Z,8.17
2019-02-18T03:22:23.028Z,8.90
2019-02-18T03:25:11.584Z,9.80
2019-02-18T03:27:40.245Z,9.67
2019-02-18T03:30:34.425Z,9.60
2019-02-18T03:33:04.040Z,9.57
2019-02-18T03:35:30.968Z,10.77
2019-02-18T03:37:59.575Z,10.27
2019-02-18T03:40:28.313Z,10.57
2019-02-18T03:42:56.991Z,10.57
2019-02-18T03:45:25.801Z,10.43
2019-02-18T03:47:54.550Z,10.53
2019-02-18T03:50:23.293Z,10.93
2019-02-18T03:52:51.915Z,9.20
2019-02-18T03:55:20.564Z,10.00
2019-02-18T03:57:49.245Z,9.47
2019-02-18T04:00:18.049Z,10.20
2019-02-18T04:02:46.783Z,9.70
2019-02-18T04:05:15.466Z,11.07
2019-02-18T04:07:44.151Z,11.20
2019-02-18T04:10:12.955Z,11.33
2019-02-18T04:12:41.643Z,11.20
2019-02-18T04:15:13.098Z,11.13
2019-02-18T04:17:41.858Z,11.47
2019-02-18T04:20:10.781Z,11.50
2019-02-18T04:22:39.659Z,10.37
2019-02-18T04:25:09.931Z,9.83
2019-02-18T04:27:38.611Z,8.87
2019-02-18T04:30:10.021Z,7.73
2019-02-18T04:32:38.624Z,7.40
2019-02-18T04:35:09.371Z,7.43
2019-02-18T04:37:38.065Z,8.47
2019-02-18T04:40:10.146Z,8.63
2019-02-18T04:42:38.889Z,9.53
2019-02-18T04:45:09.903Z,9.13
2019-02-18T04:47:38.644Z,9.87
2019-02-18T04:50:08.759Z,10.13
2019-02-18T04:52:37.521Z,10.40
2019-02-18T04:55:10.921Z,10.30
2019-02-18T04:57:39.659Z,11.70
2019-02-18T05:00:10.137Z,10.67
2019-02-18T05:02:38.747Z,10.60
2019-02-18T05:05:09.472Z,10.10
2019-02-18T05:07:38.100Z,10.23
2019-02-18T05:10:09.713Z,10.53
2019-02-18T05:12:38.539Z,10.87
